createdAt,value
2023-03-13T00:01:17.497Z,8.00
2023-03-13T00:03:46.023Z,8.00
2023-03-13T00:06:14.586Z,8.00
2023-03-13T00:08:44.840Z,8.00
2023-03-13T00:11:15.356Z,7.90
2023-03-13T00:13:44.462Z,7.90
2023-03-13T00:16:16.082Z,8.00
2023-03-13T00:18:47.338Z,8.00
2023-03-13T00:21:15.852Z,8.00
2023-03-13T00:23:44.199Z,8.00
2023-03-13T00:26:14.167Z,8.00
2023-03-13T00:28:45.800Z,8.00
2023-03-13T00:31:17.655Z,8.00
2023-03-13T00:33:48.000Z,8.00
2023-03-13T00:36:17.768Z,8.00
2023-03-13T00:38:46.409Z,8.00
2023-03-13T00:41:16.482Z,7.90
2023-03-13T00:43:46.011Z,7.90
2023-03-13T00:46:17.665Z,7.90
2023-03-13T00:48:46.680Z,7.90
2023-03-13T00:51:16.078Z,7.90
2023-03-13T00:53:44.400Z,7.90
2023-03-13T00:56:14.352Z,7.90
2023-03-13T00:58:43.913Z,7.90
2023-03-13T01:01:13.677Z,7.80
2023-03-13T01:03:45.471Z,7.80
2023-03-13T01:06:16.525Z,7.80
2023-03-13T01:08:45.050Z,7.80
2023-03-13T01:11:15.494Z,7.70
2023-03-13T01:13:44.298Z,7.70
2023-03-13T01:16:14.311Z,7.70
2023-03-13T01:18:46.265Z,7.70
2023-03-13T01:21:16.443Z,7.70
2023-03-13T01:23:44.904Z,7.70
2023-03-13T01:26:14.047Z,7.70
2023-03-13T01:28:42.750Z,7.70
2023-03-13T01:31:14.866Z,7.70
2023-03-13T01:33:44.651Z,7.60
2023-03-13T01:36:13.525Z,7.70
2023-03-13T01:38:42.505Z,7.60
2023-03-13T01:41:13.625Z,7.60
2023-03-13T01:43:41.940Z,7.60
2023-03-13T01:46:16.635Z,7.50
2023-03-13T01:48:50.812Z,7.50
2023-03-13T01:51:23.898Z,7.40
2023-03-13T01:53:57.696Z,7.40
2023-03-13T01:56:31.570Z,7.40
2023-03-13T01:59:01.057Z,7.40
2023-03-13T02:01:30.207Z,7.40
2023-03-13T02:04:00.449Z,7.40
2023-03-13T02:06:31.496Z,7.30
2023-03-13T02:09:05.599Z,7.30
2023-03-13T02:11:47.174Z,7.30
2023-03-13T02:14:16.693Z,7.20
2023-03-13T02:16:47.873Z,7.20
2023-03-13T02:19:25.930Z,7.20
2023-03-13T02:22:01.765Z,7.10
2023-03-13T02:24:34.799Z,7.10
2023-03-13T02:27:05.246Z,7.10
2023-03-13T02:29:33.804Z,7.10
2023-03-13T02:32:02.113Z,7.10
2023-03-13T02:34:33.966Z,7.10
2023-03-13T02:37:05.809Z,7.00
2023-03-13T02:39:35.725Z,7.00
2023-03-13T02:42:06.009Z,7.00
2023-03-13T02:44:40.206Z,7.00
2023-03-13T02:47:09.859Z,7.10
2023-03-13T02:49:38.357Z,7.10
2023-03-13T02:52:14.177Z,7.00
2023-03-13T02:54:44.746Z,7.00
2023-03-13T02:57:14.484Z,7.00
2023-03-13T02:59:42.967Z,7.00
2023-03-13T03:02:11.264Z,7.00
2023-03-13T03:04:39.614Z,7.00
2023-03-13T03:07:07.784Z,7.00
2023-03-13T03:09:36.244Z,7.10
2023-03-13T03:12:04.644Z,7.10
2023-03-13T03:14:34.519Z,7.10
2023-03-13T03:17:02.871Z,7.10
2023-03-13T03:19:31.234Z,7.10
2023-03-13T03:21:59.491Z,7.10
2023-03-13T03:24:28.227Z,7.10
2023-03-13T03:26:56.691Z,7.10
2023-03-13T03:29:25.077Z,7.20
2023-03-13T03:31:55.127Z,7.20
2023-03-13T03:34:23.989Z,7.20
2023-03-13T03:36:52.477Z,7.20
2023-03-13T03:39:20.793Z,7.10
2023-03-13T03:41:49.092Z,7.10
2023-03-13T03:44:17.285Z,7.20
2023-03-13T03:46:45.591Z,7.20
2023-03-13T03:49:15.276Z,7.20
2023-03-13T03:51:43.634Z,7.20
2023-03-13T03:54:11.908Z,7.20
2023-03-13T03:56:40.203Z,7.20
2023-03-13T03:59:08.569Z,7.10
2023-03-13T04:01:36.878Z,7.20
2023-03-13T04:04:05.062Z,7.10
2023-03-13T04:06:34.760Z,7.10
2023-03-13T04:09:02.976Z,7.10
2023-03-13T04:11:31.313Z,7.10
2023-03-13T04:13:59.572Z,7.10
2023-03-13T04:16:28.010Z,7.10
2023-03-13T04:18:56.270Z,7.10
2023-03-13T04:21:24.589Z,7.10
2023-03-13T04:23:54.458Z,7.10
2023-03-13T04:26:22.836Z,7.00
2023-03-13T04:28:51.190Z,6.90
2023-03-13T04:31:22.694Z,6.90
2023-03-13T04:33:51.040Z,6.90
2023-03-13T04:36:19.322Z,6.90
2023-03-13T04:38:47.723Z,7.00
2023-03-13T04:41:17.632Z,7.00
2023-03-13T04:43:45.974Z,7.00
2023-03-13T04:46:14.518Z,7.00
2023-03-13T04:48:42.908Z,7.10
2023-03-13T04:51:11.711Z,7.20
2023-03-13T04:53:39.922Z,7.20
2023-03-13T04:56:08.713Z,7.30
2023-03-13T04:58:38.415Z,7.40
2023-03-13T05:01:06.920Z,7.50
2023-03-13T05:03:35.187Z,7.50
2023-03-13T05:06:03.469Z,7.50
2023-03-13T05:08:31.731Z,7.50
2023-03-13T05:11:00.007Z,7.50
2023-03-13T05:13:28.243Z,7.50
2023-03-13T05:15:58.160Z,7.40
2023-03-13T05:18:26.605Z,7.40
2023-03-13T05:20:54.956Z,7.40
2023-03-13T05:23:23.378Z,7.40
2023-03-13T05:25:51.790Z,7.30
2023-03-13T05:28:20.092Z,7.30
2023-03-13T05:30:48.364Z,7.30
2023-03-13T05:33:19.574Z,7.30
2023-03-13T05:35:48.313Z,7.30
2023-03-13T05:38:16.841Z,7.30
2023-03-13T05:40:45.169Z,7.20
2023-03-13T05:43:13.387Z,7.20
2023-03-13T05:45:41.664Z,7.10
2023-03-13T05:48:09.911Z,7.10
2023-03-13T05:50:39.724Z,7.10
2023-03-13T05:53:08.144Z,7.10
2023-03-13T05:55:36.480Z,7.10
2023-03-13T05:58:04.976Z,7.20
2023-03-13T06:00:33.564Z,7.20
2023-03-13T06:03:01.888Z,7.20
2023-03-13T06:05:30.229Z,7.20
2023-03-13T06:08:00.214Z,7.30
2023-03-13T06:10:30.003Z,7.30
2023-03-13T06:13:03.137Z,7.30
2023-03-13T06:15:36.293Z,7.30
2023-03-13T06:18:04.965Z,7.30
2023-03-13T06:20:33.689Z,7.30
2023-03-13T06:23:03.666Z,7.30
2023-03-13T06:25:31.912Z,7.30
2023-03-13T06:28:00.490Z,7.30
2023-03-13T06:30:29.150Z,7.30
2023-03-13T06:32:57.609Z,7.40
2023-03-13T06:35:26.186Z,7.50
2023-03-13T06:37:57.394Z,7.50
2023-03-13T06:40:27.384Z,7.60
2023-03-13T06:42:55.596Z,7.60
2023-03-13T06:45:23.840Z,7.60
2023-03-13T06:47:52.548Z,7.70
2023-03-13T06:50:20.930Z,7.70
2023-03-13T06:52:49.498Z,7.70
2023-03-13T06:55:17.973Z,7.60
2023-03-13T06:57:51.578Z,7.70
2023-03-13T07:00:21.409Z,7.70
2023-03-13T07:02:49.617Z,7.70
2023-03-13T07:05:18.426Z,7.80
2023-03-13T07:07:46.775Z,7.80
2023-03-13T07:10:15.281Z,7.80
2023-03-13T07:12:44.685Z,7.90
2023-03-13T07:15:14.789Z,7.90
2023-03-13T07:17:43.403Z,8.00
2023-03-13T07:20:13.102Z,8.10
2023-03-13T07:22:41.785Z,8.30
2023-03-13T07:25:11.095Z,8.50
2023-03-13T07:27:39.396Z,8.60
2023-03-13T07:30:08.832Z,8.80
2023-03-13T07:32:38.618Z,8.90
2023-03-13T07:35:07.918Z,9.00
2023-03-13T07:37:36.287Z,9.10
2023-03-13T07:40:05.948Z,9.20
2023-03-13T07:42:34.486Z,9.30
2023-03-13T07:45:02.891Z,9.40
2023-03-13T07:47:31.391Z,9.60
2023-03-13T07:50:01.423Z,9.70
2023-03-13T07:52:31.782Z,9.80
2023-03-13T07:55:00.278Z,9.80
2023-03-13T07:57:28.647Z,9.80
2023-03-13T07:59:56.938Z,9.80
2023-03-13T08:02:25.317Z,9.90
2023-03-13T08:04:54.381Z,10.00
2023-03-13T08:07:24.192Z,10.10
2023-03-13T08:09:52.809Z,10.00
2023-03-13T08:12:22.599Z,10.10
2023-03-13T08:14:50.982Z,10.30
2023-03-13T08:17:21.256Z,10.40
2023-03-13T08:19:49.564Z,10.60
2023-03-13T08:22:18.010Z,10.70
2023-03-13T08:24:47.787Z,10.90
2023-03-13T08:27:16.022Z,11.00
2023-03-13T08:29:44.485Z,11.10
2023-03-13T08:32:13.136Z,11.30
2023-03-13T08:34:41.609Z,11.40
2023-03-13T08:37:10.017Z,11.60
2023-03-13T08:39:38.799Z,11.70
2023-03-13T08:42:09.679Z,11.80
2023-03-13T08:44:37.962Z,11.80
2023-03-13T08:47:07.896Z,11.80
2023-03-13T08:49:36.387Z,11.90
2023-03-13T08:52:06.355Z,11.90
2023-03-13T08:54:35.036Z,12.00
2023-03-13T08:57:03.314Z,12.20
2023-03-13T08:59:32.990Z,12.40
2023-03-13T09:02:01.225Z,12.60
2023-03-13T09:04:29.641Z,12.90
2023-03-13T09:06:57.780Z,13.10
2023-03-13T09:09:25.991Z,13.20
2023-03-13T09:11:54.460Z,13.10
2023-03-13T09:14:23.761Z,13.10
2023-03-13T09:16:53.210Z,13.00
2023-03-13T09:19:21.360Z,13.10
2023-03-13T09:21:49.533Z,13.10
2023-03-13T09:24:17.587Z,13.30
2023-03-13T09:27:00.076Z,13.40
2023-03-13T09:29:28.658Z,13.70
2023-03-13T09:31:58.320Z,13.90
2023-03-13T09:34:26.543Z,14.20
2023-03-13T09:36:54.756Z,14.40
2023-03-13T09:39:22.853Z,14.70
2023-03-13T09:41:55.251Z,14.80
2023-03-13T09:44:26.852Z,14.90
2023-03-13T09:47:02.730Z,15.00
2023-03-13T09:49:32.608Z,15.40
2023-03-13T09:52:03.988Z,15.70
2023-03-13T09:54:35.620Z,16.00
2023-03-13T09:57:09.527Z,16.20
2023-03-13T09:59:46.415Z,16.20
2023-03-13T10:02:20.745Z,16.20
2023-03-13T10:04:51.437Z,16.00
2023-03-13T10:07:23.713Z,15.80
2023-03-13T10:09:54.298Z,15.40
2023-03-13T10:12:25.713Z,15.30
2023-03-13T10:14:59.890Z,15.10
2023-03-13T10:17:32.942Z,15.00
2023-03-13T10:20:08.629Z,15.00
2023-03-13T10:22:38.198Z,15.00
2023-03-13T10:25:08.482Z,14.80
2023-03-13T10:27:44.404Z,14.70
2023-03-13T10:30:23.239Z,14.70
2023-03-13T10:32:53.282Z,14.70
2023-03-13T10:35:25.406Z,14.60
2023-03-13T10:38:05.249Z,14.70
2023-03-13T10:40:33.903Z,14.70
2023-03-13T10:43:03.939Z,14.60
2023-03-13T10:45:34.017Z,14.70
2023-03-13T10:48:10.010Z,14.80
2023-03-13T10:50:38.232Z,14.90
2023-03-13T10:53:21.086Z,15.00
2023-03-13T10:55:49.503Z,15.10
2023-03-13T10:58:20.857Z,15.10
2023-03-13T11:00:51.887Z,15.10
2023-03-13T11:03:25.812Z,15.10
2023-03-13T11:06:01.058Z,15.00
2023-03-13T11:08:30.279Z,15.00
2023-03-13T11:10:59.679Z,15.00
2023-03-13T11:13:37.070Z,15.00
2023-03-13T11:16:21.601Z,15.00
2023-03-13T11:19:06.845Z,15.00
2023-03-13T11:21:40.588Z,15.10
2023-03-13T11:24:11.610Z,15.10
2023-03-13T11:26:43.515Z,15.10
2023-03-13T11:29:17.103Z,15.20
2023-03-13T11:31:47.572Z,15.30
2023-03-13T11:34:18.661Z,15.30
2023-03-13T11:36:53.694Z,15.40
2023-03-13T11:39:34.304Z,15.40
2023-03-13T11:42:08.136Z,15.50
2023-03-13T11:44:44.393Z,15.50
2023-03-13T11:47:28.778Z,15.50
2023-03-13T11:50:07.940Z,15.50
2023-03-13T11:52:43.513Z,15.40
2023-03-13T11:55:19.154Z,15.30
2023-03-13T11:57:52.613Z,15.30
2023-03-13T12:00:24.293Z,15.20
2023-03-13T12:02:55.685Z,15.10
2023-03-13T12:05:28.792Z,15.10
2023-03-13T12:08:03.727Z,15.10
2023-03-13T12:10:34.499Z,15.10
2023-03-13T12:13:05.405Z,15.10
2023-03-13T12:15:35.768Z,15.00
2023-03-13T12:18:05.940Z,15.00
2023-03-13T12:20:38.986Z,15.00
2023-03-13T12:23:18.126Z,15.00
2023-03-13T12:25:49.138Z,15.10
2023-03-13T12:28:24.279Z,15.20
2023-03-13T12:30:55.665Z,15.30
2023-03-13T12:33:26.649Z,15.50
2023-03-13T12:35:58.522Z,15.60
2023-03-13T12:38:31.390Z,15.70
2023-03-13T12:41:09.449Z,15.90
2023-03-13T12:43:40.191Z,16.00
2023-03-13T12:46:17.899Z,16.20
2023-03-13T12:48:52.976Z,16.30
2023-03-13T12:51:26.171Z,16.40
2023-03-13T12:54:13.032Z,16.40
2023-03-13T12:56:56.056Z,16.30
2023-03-13T12:59:28.800Z,16.20
2023-03-13T13:01:57.345Z,16.10
2023-03-13T13:04:27.285Z,16.10
2023-03-13T13:06:57.683Z,16.00
2023-03-13T13:09:27.063Z,15.90
2023-03-13T13:11:56.689Z,15.80
2023-03-13T13:14:54.836Z,15.70
2023-03-13T13:17:36.312Z,15.60
2023-03-13T13:20:22.972Z,15.60
2023-03-13T13:22:52.810Z,15.50
2023-03-13T13:25:30.043Z,15.40
2023-03-13T13:27:59.136Z,15.40
2023-03-13T13:30:32.302Z,15.30
2023-03-13T13:33:15.370Z,15.30
2023-03-13T13:35:45.964Z,15.30
2023-03-13T13:38:30.352Z,15.30
2023-03-13T13:41:02.796Z,15.20
2023-03-13T13:43:32.527Z,15.20
2023-03-13T13:46:02.527Z,15.10
2023-03-13T13:48:33.838Z,15.20
2023-03-13T13:51:25.652Z,15.20
2023-03-13T13:54:04.764Z,15.20
2023-03-13T13:56:36.334Z,15.20
2023-03-13T13:59:06.228Z,15.30
2023-03-13T14:01:34.930Z,15.20
2023-03-13T14:04:08.640Z,15.10
2023-03-13T14:06:38.023Z,15.10
2023-03-13T14:09:14.622Z,15.20
2023-03-13T14:11:42.790Z,15.30
2023-03-13T14:14:11.358Z,15.40
2023-03-13T14:16:39.874Z,15.50
2023-03-13T14:19:20.610Z,15.50
2023-03-13T14:21:48.787Z,15.60
2023-03-13T14:24:18.770Z,15.60
2023-03-13T14:26:46.924Z,15.60
2023-03-13T14:29:17.381Z,15.60
2023-03-13T14:31:51.919Z,15.60
2023-03-13T14:34:20.080Z,15.50
2023-03-13T14:36:48.790Z,15.50
2023-03-13T14:39:20.590Z,15.50
2023-03-13T14:41:49.805Z,15.40
2023-03-13T14:44:22.662Z,15.40
2023-03-13T14:46:54.495Z,15.40
2023-03-13T14:49:25.684Z,15.20
2023-03-13T14:52:00.208Z,15.10
2023-03-13T14:54:31.590Z,15.10
2023-03-13T14:57:07.725Z,15.10
2023-03-13T14:59:35.853Z,15.20
2023-03-13T15:02:13.669Z,15.20
2023-03-13T15:04:56.127Z,15.10
2023-03-13T15:07:24.492Z,15.20
2023-03-13T15:09:54.487Z,15.20
2023-03-13T15:12:23.369Z,15.10
2023-03-13T15:14:52.405Z,15.20
2023-03-13T15:17:21.760Z,15.20
2023-03-13T15:19:50.768Z,15.20
2023-03-13T15:22:19.634Z,15.20
2023-03-13T15:25:03.256Z,15.20
2023-03-13T15:27:35.067Z,15.20
2023-03-13T15:30:03.167Z,15.20
2023-03-13T15:32:32.393Z,15.20
2023-03-13T15:35:02.216Z,15.10
2023-03-13T15:37:30.673Z,15.10
2023-03-13T15:39:59.293Z,15.00
2023-03-13T15:42:27.532Z,14.90
2023-03-13T15:44:59.103Z,14.90
2023-03-13T15:47:28.887Z,14.80
2023-03-13T15:49:56.959Z,14.80
2023-03-13T15:52:25.477Z,14.80
2023-03-13T15:54:53.606Z,14.80
2023-03-13T15:57:23.714Z,14.80
2023-03-13T15:59:52.355Z,14.80
2023-03-13T16:02:22.785Z,14.70
2023-03-13T16:04:51.491Z,14.70
2023-03-13T16:07:21.126Z,14.60
2023-03-13T16:09:49.652Z,14.60
2023-03-13T16:12:17.753Z,14.50
2023-03-13T16:14:45.953Z,14.50
2023-03-13T16:17:14.988Z,14.50
2023-03-13T16:19:44.507Z,14.50
2023-03-13T16:22:12.628Z,14.50
2023-03-13T16:24:40.665Z,14.40
2023-03-13T16:27:14.210Z,14.30
2023-03-13T16:29:42.316Z,14.30
2023-03-13T16:32:12.420Z,14.30
2023-03-13T16:34:40.821Z,14.20
2023-03-13T16:37:14.584Z,14.10
2023-03-13T16:39:43.079Z,14.10
2023-03-13T16:42:11.152Z,14.00
2023-03-13T16:44:39.814Z,13.90
2023-03-13T16:47:15.850Z,14.00
2023-03-13T16:49:45.750Z,13.90
2023-03-13T16:52:17.331Z,13.90
2023-03-13T16:54:45.848Z,13.90
2023-03-13T16:57:14.884Z,13.90
2023-03-13T16:59:43.152Z,13.90
2023-03-13T17:02:15.224Z,13.90
2023-03-13T17:04:44.871Z,13.90
2023-03-13T17:07:18.827Z,13.90
2023-03-13T17:09:46.790Z,13.80
2023-03-13T17:12:14.872Z,13.80
2023-03-13T17:14:43.124Z,13.80
2023-03-13T17:17:13.348Z,13.70
2023-03-13T17:19:41.399Z,13.70
2023-03-13T17:22:10.972Z,13.70
2023-03-13T17:24:40.596Z,13.70
2023-03-13T17:27:11.604Z,13.60
2023-03-13T17:29:39.655Z,13.60
2023-03-13T17:32:07.793Z,13.60
2023-03-13T17:34:35.899Z,13.50
2023-03-13T17:37:06.243Z,13.50
2023-03-13T17:39:34.275Z,13.50
2023-03-13T17:42:05.663Z,13.50
2023-03-13T17:44:33.695Z,13.50
2023-03-13T17:47:01.799Z,13.40
2023-03-13T17:49:31.172Z,13.40
2023-03-13T17:51:59.528Z,13.30
2023-03-13T17:54:27.721Z,13.30
2023-03-13T17:56:56.636Z,13.30
2023-03-13T17:59:26.605Z,13.20
2023-03-13T18:01:55.639Z,13.20
2023-03-13T18:04:23.819Z,13.10
2023-03-13T18:06:51.940Z,13.00
2023-03-13T18:09:20.940Z,12.90
2023-03-13T18:11:49.812Z,12.90
2023-03-13T18:14:18.385Z,12.80
2023-03-13T18:16:51.136Z,12.70
2023-03-13T18:19:22.465Z,12.70
2023-03-13T18:21:52.853Z,12.60
2023-03-13T18:24:21.120Z,12.50
2023-03-13T18:26:50.760Z,12.50
2023-03-13T18:29:26.326Z,12.50
2023-03-13T18:31:58.801Z,12.40
2023-03-13T18:34:27.997Z,12.40
2023-03-13T18:36:57.301Z,12.40
2023-03-13T18:39:25.680Z,12.30
2023-03-13T18:41:54.165Z,12.30
2023-03-13T18:44:23.136Z,12.30
2023-03-13T18:46:53.083Z,12.20
2023-03-13T18:49:25.005Z,12.20
2023-03-13T18:51:54.397Z,12.10
2023-03-13T18:54:22.723Z,12.10
2023-03-13T18:56:51.002Z,12.00
2023-03-13T18:59:21.486Z,12.00
2023-03-13T19:01:51.253Z,11.90
2023-03-13T19:04:20.798Z,11.90
2023-03-13T19:06:50.860Z,11.90
2023-03-13T19:09:42.279Z,11.90
2023-03-13T19:12:09.714Z,11.80
2023-03-13T19:14:38.055Z,11.80
2023-03-13T19:17:08.103Z,11.70
2023-03-13T19:19:36.374Z,11.70
2023-03-13T19:22:06.125Z,11.60
2023-03-13T19:24:34.416Z,11.60
2023-03-13T19:27:02.849Z,11.60
2023-03-13T19:29:33.846Z,11.60
2023-03-13T19:32:05.249Z,11.50
2023-03-13T19:34:33.692Z,11.50
2023-03-13T19:37:02.143Z,11.50
2023-03-13T19:39:31.974Z,11.50
2023-03-13T19:42:00.428Z,11.50
2023-03-13T19:44:29.515Z,11.50
2023-03-13T19:46:57.815Z,11.50
2023-03-13T19:49:26.381Z,11.50
2023-03-13T19:51:54.771Z,11.50
2023-03-13T19:54:24.449Z,11.50
2023-03-13T19:56:54.586Z,11.50
2023-03-13T19:59:26.752Z,11.50
2023-03-13T20:01:55.936Z,11.50
2023-03-13T20:04:25.316Z,11.50
2023-03-13T20:06:53.629Z,11.50
2023-03-13T20:09:23.261Z,11.50
2023-03-13T20:11:51.578Z,11.50
2023-03-13T20:14:21.336Z,11.40
2023-03-13T20:16:52.073Z,11.40
2023-03-13T20:19:21.623Z,11.30
2023-03-13T20:21:49.793Z,11.30
2023-03-13T20:24:18.163Z,11.20
2023-03-13T20:26:46.431Z,11.20
2023-03-13T20:29:14.788Z,11.20
2023-03-13T20:31:44.675Z,11.10
2023-03-13T20:34:13.216Z,11.10
2023-03-13T20:36:41.506Z,11.10
2023-03-13T20:39:09.751Z,11.10
2023-03-13T20:41:38.322Z,11.00
2023-03-13T20:44:06.873Z,11.00
2023-03-13T20:46:35.413Z,11.00
2023-03-13T20:49:05.473Z,11.00
2023-03-13T20:51:34.711Z,10.90
2023-03-13T20:54:03.168Z,10.90
2023-03-13T20:56:31.623Z,11.00
2023-03-13T20:59:00.054Z,10.90
2023-03-13T21:01:30.344Z,10.90
2023-03-13T21:03:59.407Z,10.90
2023-03-13T21:06:30.493Z,10.90
2023-03-13T21:08:58.806Z,10.80
2023-03-13T21:11:27.130Z,10.80
2023-03-13T21:13:55.351Z,10.80
2023-03-13T21:16:23.712Z,10.70
2023-03-13T21:18:52.024Z,10.60
2023-03-13T21:21:22.540Z,10.60
2023-03-13T21:23:53.315Z,10.60
2023-03-13T21:26:22.616Z,10.50
2023-03-13T21:28:53.027Z,10.50
2023-03-13T21:31:21.468Z,10.50
2023-03-13T21:33:50.162Z,10.50
2023-03-13T21:36:21.022Z,10.50
2023-03-13T21:38:49.900Z,10.40
2023-03-13T21:41:21.825Z,10.40
2023-03-13T21:43:50.598Z,10.40
2023-03-13T21:46:20.008Z,10.40
2023-03-13T21:48:48.323Z,10.40
2023-03-13T21:51:16.923Z,10.40
2023-03-13T21:53:45.666Z,10.40
2023-03-13T21:56:15.932Z,10.40
2023-03-13T21:58:46.708Z,10.50
2023-03-13T22:01:16.105Z,10.40
2023-03-13T22:03:44.445Z,10.50
2023-03-13T22:06:17.077Z,10.50
2023-03-13T22:08:45.548Z,10.40
2023-03-13T22:11:14.080Z,10.40
2023-03-13T22:13:42.597Z,10.40
2023-03-13T22:16:12.565Z,10.30
2023-03-13T22:18:41.950Z,10.30
2023-03-13T22:21:10.273Z,10.30
2023-03-13T22:23:38.660Z,10.30
2023-03-13T22:26:07.576Z,10.30
2023-03-13T22:28:35.859Z,10.30
2023-03-13T22:31:05.936Z,10.20
2023-03-13T22:33:36.061Z,10.20
2023-03-13T22:36:05.491Z,10.20
2023-03-13T22:38:38.851Z,10.10
2023-03-13T22:41:09.283Z,10.10
2023-03-13T22:43:37.528Z,10.10
2023-03-13T22:46:07.248Z,10.00
2023-03-13T22:48:38.074Z,10.00
2023-03-13T22:51:09.188Z,10.00
2023-03-13T22:53:39.301Z,10.00
2023-03-13T22:56:10.501Z,9.90
2023-03-13T22:58:39.586Z,9.90
2023-03-13T23:01:08.655Z,9.90
2023-03-13T23:03:38.583Z,9.80
2023-03-13T23:06:08.089Z,9.80
2023-03-13T23:08:37.090Z,9.80
2023-03-13T23:11:05.920Z,9.80
2023-03-13T23:13:34.079Z,9.80
2023-03-13T23:16:07.901Z,9.70
2023-03-13T23:18:38.439Z,9.80
2023-03-13T23:21:10.380Z,9.80
2023-03-13T23:23:38.945Z,9.80
2023-03-13T23:26:09.595Z,9.70
2023-03-13T23:28:39.178Z,9.70
2023-03-13T23:31:13.038Z,9.80
2023-03-13T23:33:43.652Z,9.70
2023-03-13T23:36:17.631Z,9.70
2023-03-13T23:38:49.313Z,9.70
2023-03-13T23:41:17.573Z,9.80
2023-03-13T23:43:45.956Z,9.70
2023-03-13T23:46:18.221Z,9.70
2023-03-13T23:48:48.448Z,9.70
2023-03-13T23:51:16.810Z,9.60
2023-03-13T23:53:45.590Z,9.60
2023-03-13T23:56:14.613Z,9.50
2023-03-13T23:58:43.340Z,9.50
